createdAt,value
2023-03-15T00:00:24.998Z,3.13
2023-03-15T00:02:52.058Z,3.06
2023-03-15T00:05:19.286Z,3.07
2023-03-15T00:07:46.358Z,3.13
2023-03-15T00:10:14.047Z,3.08
2023-03-15T00:12:45.950Z,3.07
2023-03-15T00:15:15.906Z,2.96
2023-03-15T00:17:43.109Z,3.00
2023-03-15T00:20:11.267Z,3.00
2023-03-15T00:22:38.696Z,2.94
2023-03-15T00:25:06.243Z,2.91
2023-03-15T00:27:33.340Z,2.89
2023-03-15T00:30:00.545Z,2.86
2023-03-15T00:32:27.623Z,2.87
2023-03-15T00:34:55.020Z,2.84
2023-03-15T00:37:22.069Z,2.78
2023-03-15T00:39:49.239Z,2.73
2023-03-15T00:42:16.239Z,2.74
2023-03-15T00:44:47.302Z,2.78
2023-03-15T00:47:15.070Z,2.75
2023-03-15T00:49:42.115Z,2.74
2023-03-15T00:52:09.279Z,2.75
2023-03-15T00:54:36.533Z,2.70
2023-03-15T00:57:03.986Z,2.74
2023-03-15T00:59:35.113Z,2.75
2023-03-15T01:02:03.412Z,2.72
2023-03-15T01:04:31.666Z,2.73
2023-03-15T01:06:59.336Z,2.74
2023-03-15T01:09:26.442Z,2.78
2023-03-15T01:11:53.441Z,2.74
2023-03-15T01:14:20.626Z,2.75
2023-03-15T01:16:47.697Z,2.71
2023-03-15T01:19:14.768Z,2.69
2023-03-15T01:21:41.937Z,2.75
2023-03-15T01:24:13.489Z,2.75
2023-03-15T01:26:41.104Z,2.69
2023-03-15T01:29:08.370Z,2.69
2023-03-15T01:31:35.622Z,2.69
2023-03-15T01:34:02.837Z,2.70
2023-03-15T01:36:32.846Z,2.73
2023-03-15T01:38:59.935Z,2.71
2023-03-15T01:41:39.083Z,2.71
2023-03-15T01:44:06.153Z,2.70
2023-03-15T01:46:36.584Z,2.70
2023-03-15T01:49:24.202Z,2.74
2023-03-15T01:52:09.598Z,2.71
2023-03-15T01:55:04.376Z,2.73
2023-03-15T01:57:37.613Z,2.64
2023-03-15T02:00:13.651Z,2.71
2023-03-15T02:02:56.032Z,2.70
2023-03-15T02:05:32.660Z,2.65
2023-03-15T02:08:03.358Z,2.65
2023-03-15T02:10:44.267Z,2.61
2023-03-15T02:13:15.895Z,2.56
2023-03-15T02:15:49.782Z,2.58
2023-03-15T02:18:25.063Z,2.58
2023-03-15T02:21:10.400Z,2.49
2023-03-15T02:23:37.506Z,2.44
2023-03-15T02:26:17.924Z,2.46
2023-03-15T02:28:45.218Z,2.39
2023-03-15T02:31:13.502Z,2.39
2023-03-15T02:33:46.298Z,2.37
2023-03-15T02:36:25.107Z,2.36
2023-03-15T02:38:53.428Z,2.38
2023-03-15T02:41:39.052Z,2.36
2023-03-15T02:44:14.458Z,2.33
2023-03-15T02:46:43.231Z,2.29
2023-03-15T02:49:11.464Z,2.25
2023-03-15T02:51:38.671Z,2.29
2023-03-15T02:54:05.723Z,2.26
2023-03-15T02:56:33.719Z,2.22
2023-03-15T02:59:01.798Z,2.15
2023-03-15T03:01:29.408Z,2.10
2023-03-15T03:03:56.976Z,2.11
2023-03-15T03:06:24.776Z,2.05
2023-03-15T03:08:52.008Z,2.00
2023-03-15T03:11:20.974Z,2.00
2023-03-15T03:13:48.083Z,1.96
2023-03-15T03:16:15.125Z,1.97
2023-03-15T03:18:43.398Z,1.96
2023-03-15T03:21:10.571Z,1.89
2023-03-15T03:23:37.992Z,1.89
2023-03-15T03:26:17.082Z,1.88
2023-03-15T03:28:47.670Z,1.89
2023-03-15T03:31:25.200Z,1.78
2023-03-15T03:33:55.476Z,1.77
2023-03-15T03:36:22.656Z,1.73
2023-03-15T03:38:51.695Z,1.75
2023-03-15T03:41:18.708Z,1.76
2023-03-15T03:43:45.790Z,1.75
2023-03-15T03:46:12.994Z,1.68
2023-03-15T03:48:46.174Z,1.71
2023-03-15T03:51:13.432Z,1.69
2023-03-15T03:53:40.408Z,1.66
2023-03-15T03:56:08.862Z,1.66
2023-03-15T03:58:36.975Z,1.65
2023-03-15T04:01:12.208Z,1.65
2023-03-15T04:03:41.040Z,1.65
2023-03-15T04:06:15.077Z,1.66
2023-03-15T04:08:45.147Z,1.66
2023-03-15T04:11:17.946Z,1.63
2023-03-15T04:13:51.105Z,1.64
2023-03-15T04:16:18.223Z,1.66
2023-03-15T04:18:56.543Z,1.63
2023-03-15T04:21:24.711Z,1.61
2023-03-15T04:23:56.454Z,1.60
2023-03-15T04:26:43.452Z,1.52
2023-03-15T04:29:33.417Z,1.52
2023-03-15T04:32:20.762Z,1.53
2023-03-15T04:35:13.852Z,1.50
2023-03-15T04:38:13.356Z,1.48
2023-03-15T04:40:43.022Z,1.50
2023-03-15T04:43:30.339Z,1.50
2023-03-15T04:46:35.921Z,1.56
2023-03-15T04:49:29.225Z,1.62
2023-03-15T04:52:08.454Z,1.64
2023-03-15T04:54:58.553Z,1.59
2023-03-15T04:57:48.218Z,1.59
2023-03-15T05:00:48.034Z,1.64
2023-03-15T05:03:36.945Z,1.66
2023-03-15T05:06:19.186Z,1.65
2023-03-15T05:08:49.267Z,1.65
2023-03-15T05:11:39.337Z,1.67
2023-03-15T05:14:26.664Z,1.70
2023-03-15T05:17:26.466Z,1.64
2023-03-15T05:37:10.500Z,1.87
2023-03-15T05:39:56.361Z,1.87
2023-03-15T05:42:49.611Z,1.92
2023-03-15T05:45:30.096Z,1.94
2023-03-15T05:48:05.214Z,1.94
2023-03-15T05:50:53.172Z,1.98
2023-03-15T05:53:55.457Z,2.01
2023-03-15T05:56:36.302Z,1.96
2023-03-15T05:59:22.522Z,1.89
2023-03-15T06:02:10.147Z,1.92
2023-03-15T06:04:50.818Z,1.85
2023-03-15T06:07:21.980Z,1.85
2023-03-15T06:09:49.155Z,1.92
2023-03-15T06:12:16.173Z,1.93
2023-03-15T06:14:43.563Z,2.02
2023-03-15T06:17:11.994Z,2.11
2023-03-15T06:19:42.340Z,2.17
2023-03-15T06:22:10.255Z,2.24
2023-03-15T06:24:50.870Z,2.30
2023-03-15T06:27:22.167Z,2.30
2023-03-15T06:29:50.850Z,2.34
2023-03-15T06:32:21.067Z,2.34
2023-03-15T06:34:48.293Z,2.34
2023-03-15T06:37:22.723Z,2.31
2023-03-15T06:39:56.777Z,2.33
2023-03-15T06:42:23.939Z,2.31
2023-03-15T06:44:51.330Z,2.33
2023-03-15T06:47:19.741Z,2.35
2023-03-15T06:49:50.558Z,2.29
2023-03-15T06:52:19.309Z,2.32
2023-03-15T06:54:46.509Z,2.40
2023-03-15T06:57:13.618Z,2.43
2023-03-15T06:59:40.947Z,2.41
2023-03-15T07:02:14.835Z,2.53
2023-03-15T07:04:42.031Z,2.52
2023-03-15T07:07:09.174Z,2.52
2023-03-15T07:09:36.260Z,2.47
2023-03-15T07:12:03.631Z,2.58
2023-03-15T07:14:30.782Z,2.60
2023-03-15T07:16:57.877Z,2.61
2023-03-15T07:19:25.109Z,2.66
2023-03-15T07:21:52.393Z,2.68
2023-03-15T07:24:19.744Z,2.77
2023-03-15T07:26:46.946Z,2.80
2023-03-15T07:29:14.160Z,2.90
2023-03-15T07:31:41.193Z,2.96
2023-03-15T07:34:08.361Z,2.88
2023-03-15T07:36:35.428Z,2.95
2023-03-15T07:39:02.701Z,2.97
2023-03-15T07:41:30.029Z,3.01
2023-03-15T07:44:06.468Z,3.11
2023-03-15T07:46:33.753Z,3.02
2023-03-15T07:49:00.809Z,3.06
2023-03-15T07:51:27.857Z,3.06
2023-03-15T07:53:54.981Z,3.10
2023-03-15T07:56:22.090Z,3.11
2023-03-15T07:58:49.139Z,3.03
2023-03-15T08:01:16.288Z,3.05
2023-03-15T08:03:44.011Z,3.09
2023-03-15T08:06:11.069Z,3.10
2023-03-15T08:08:38.222Z,3.08
2023-03-15T08:11:06.070Z,3.15
2023-03-15T08:13:34.118Z,3.11
2023-03-15T08:16:01.596Z,3.11
2023-03-15T08:18:31.682Z,3.14
2023-03-15T08:20:59.425Z,3.29
2023-03-15T08:23:26.499Z,3.32
2023-03-15T08:25:53.728Z,3.30
2023-03-15T08:28:20.922Z,3.23
2023-03-15T08:30:47.914Z,3.16
2023-03-15T08:33:14.949Z,3.23
2023-03-15T08:35:42.224Z,3.30
2023-03-15T08:38:09.606Z,3.39
2023-03-15T08:40:38.908Z,3.50
2023-03-15T08:43:07.070Z,3.47
2023-03-15T08:45:50.949Z,3.58
2023-03-15T08:48:21.382Z,3.62
2023-03-15T08:50:48.983Z,3.73
2023-03-15T08:53:16.217Z,3.74
2023-03-15T08:55:43.406Z,3.82
2023-03-15T08:58:13.022Z,3.84
2023-03-15T09:00:40.727Z,3.83
2023-03-15T09:03:07.822Z,3.84
2023-03-15T09:05:34.957Z,3.82
2023-03-15T09:08:02.249Z,3.82
2023-03-15T09:10:29.586Z,3.84
2023-03-15T09:12:56.889Z,3.84
2023-03-15T09:15:24.026Z,3.80
2023-03-15T09:17:51.962Z,3.80
2023-03-15T09:20:22.162Z,3.95
2023-03-15T09:22:53.835Z,3.95
2023-03-15T09:25:22.303Z,4.02
2023-03-15T09:27:50.160Z,4.19
2023-03-15T09:30:17.996Z,4.27
2023-03-15T09:32:46.149Z,4.35
2023-03-15T09:35:16.709Z,4.43
2023-03-15T09:37:44.148Z,4.55
2023-03-15T09:40:35.221Z,4.73
2023-03-15T09:43:09.178Z,4.75
2023-03-15T09:45:45.582Z,4.86
2023-03-15T09:48:38.100Z,5.03
2023-03-15T09:51:35.954Z,5.21
2023-03-15T09:54:15.473Z,5.40
2023-03-15T09:57:04.953Z,5.55
2023-03-15T09:59:38.707Z,5.60
2023-03-15T10:02:25.118Z,5.63
2023-03-15T10:05:08.362Z,5.38
2023-03-15T10:07:36.182Z,5.16
2023-03-15T10:10:05.124Z,4.97
2023-03-15T10:12:41.588Z,4.83
2023-03-15T10:15:26.411Z,4.79
2023-03-15T10:17:59.188Z,4.91
2023-03-15T10:20:41.585Z,5.19
2023-03-15T10:23:45.527Z,5.56
2023-03-15T10:26:16.024Z,5.81
2023-03-15T10:28:44.196Z,5.72
2023-03-15T10:31:25.979Z,5.77
2023-03-15T10:33:59.781Z,5.92
2023-03-15T10:36:27.178Z,6.03
2023-03-15T10:38:54.560Z,6.10
2023-03-15T10:41:40.712Z,6.24
2023-03-15T10:44:13.943Z,6.39
2023-03-15T10:46:41.231Z,6.51
2023-03-15T10:49:09.911Z,6.68
2023-03-15T10:51:47.989Z,6.57
2023-03-15T10:54:23.159Z,6.47
2023-03-15T10:57:06.417Z,6.34
2023-03-15T10:59:35.905Z,6.42
2023-03-15T11:02:11.808Z,6.45
2023-03-15T11:04:43.929Z,6.47
2023-03-15T11:07:13.717Z,6.36
2023-03-15T11:09:45.980Z,6.11
2023-03-15T11:12:21.617Z,6.10
2023-03-15T11:14:58.430Z,6.11
2023-03-15T11:17:29.407Z,5.94
2023-03-15T11:19:59.635Z,5.65
2023-03-15T11:22:26.662Z,5.41
2023-03-15T11:24:58.673Z,5.24
2023-03-15T11:27:28.075Z,5.24
2023-03-15T11:29:58.427Z,5.32
2023-03-15T11:32:29.342Z,5.49
2023-03-15T11:35:24.595Z,5.85
2023-03-15T11:37:58.538Z,6.07
2023-03-15T11:40:33.006Z,6.14
2023-03-15T11:43:03.031Z,6.01
2023-03-15T11:45:42.108Z,5.84
2023-03-15T11:48:36.632Z,5.97
2023-03-15T11:51:04.410Z,5.97
2023-03-15T11:53:37.199Z,5.87
2023-03-15T11:56:21.603Z,5.87
2023-03-15T11:59:08.789Z,5.72
2023-03-15T12:01:36.136Z,5.70
2023-03-15T12:04:24.798Z,5.77
2023-03-15T12:06:57.392Z,5.71
2023-03-15T12:09:52.633Z,5.70
2023-03-15T12:12:25.523Z,5.60
2023-03-15T12:15:20.260Z,5.46
2023-03-15T12:17:51.497Z,5.32
2023-03-15T12:20:21.741Z,5.36
2023-03-15T12:22:51.656Z,5.45
2023-03-15T12:25:48.964Z,5.53
2023-03-15T12:28:30.525Z,5.45
2023-03-15T12:31:02.110Z,5.49
2023-03-15T12:33:32.421Z,5.54
2023-03-15T12:36:09.523Z,5.82
2023-03-15T12:38:39.356Z,5.94
2023-03-15T12:41:30.053Z,6.16
2023-03-15T12:44:32.070Z,6.20
2023-03-15T12:47:01.124Z,6.14
2023-03-15T12:49:57.299Z,6.07
2023-03-15T12:52:43.352Z,6.02
2023-03-15T12:55:10.337Z,6.01
2023-03-15T12:57:46.790Z,5.99
2023-03-15T13:00:23.308Z,5.94
2023-03-15T13:03:01.898Z,5.85
2023-03-15T13:05:37.699Z,5.73
2023-03-15T13:08:09.517Z,5.57
2023-03-15T13:10:39.300Z,5.58
2023-03-15T13:13:18.218Z,5.54
2023-03-15T13:16:22.733Z,5.55
2023-03-15T13:19:05.530Z,5.65
2023-03-15T13:21:40.020Z,5.81
2023-03-15T13:24:17.361Z,5.91
2023-03-15T13:26:55.585Z,5.98
2023-03-15T13:29:31.580Z,6.07
2023-03-15T13:32:09.498Z,6.19
2023-03-15T13:34:36.863Z,6.26
2023-03-15T13:37:04.426Z,6.32
2023-03-15T13:39:34.359Z,6.46
2023-03-15T13:42:16.713Z,6.57
2023-03-15T13:44:44.157Z,6.56
2023-03-15T13:47:22.101Z,6.49
2023-03-15T13:49:53.052Z,6.34
2023-03-15T13:52:20.753Z,6.22
2023-03-15T13:54:48.385Z,6.14
2023-03-15T13:57:23.724Z,6.00
2023-03-15T14:00:00.756Z,5.81
2023-03-15T14:02:38.047Z,5.69
2023-03-15T14:05:14.849Z,5.63
2023-03-15T14:07:45.979Z,5.49
2023-03-15T14:10:19.279Z,5.54
2023-03-15T14:12:46.851Z,5.57
2023-03-15T14:15:24.229Z,5.66
2023-03-15T14:18:01.117Z,5.66
2023-03-15T14:20:36.556Z,5.65
2023-03-15T14:23:05.076Z,5.55
2023-03-15T14:25:36.498Z,5.41
2023-03-15T14:28:05.715Z,5.31
2023-03-15T14:30:38.077Z,5.20
2023-03-15T14:33:09.019Z,5.18
2023-03-15T14:35:36.033Z,5.11
2023-03-15T14:38:23.686Z,4.99
2023-03-15T14:40:52.207Z,4.97
2023-03-15T14:43:19.750Z,4.99
2023-03-15T14:45:48.913Z,5.00
2023-03-15T14:48:29.220Z,5.11
2023-03-15T14:50:56.717Z,5.20
2023-03-15T14:53:26.953Z,5.36
2023-03-15T14:55:54.120Z,5.45
2023-03-15T14:58:22.788Z,5.54
2023-03-15T15:00:53.586Z,5.66
2023-03-15T15:03:29.753Z,5.69
2023-03-15T15:05:57.048Z,5.68
2023-03-15T15:08:24.223Z,5.73
2023-03-15T15:10:53.694Z,5.70
2023-03-15T15:13:24.602Z,5.66
2023-03-15T15:15:56.201Z,5.62
2023-03-15T15:18:29.227Z,5.57
2023-03-15T15:20:58.670Z,5.53
2023-03-15T15:23:57.531Z,5.41
2023-03-15T15:26:27.405Z,5.33
2023-03-15T15:28:55.403Z,5.30
2023-03-15T15:31:24.519Z,5.29
2023-03-15T15:33:53.047Z,5.28
2023-03-15T15:36:26.018Z,5.32
2023-03-15T15:38:53.317Z,5.34
2023-03-15T15:41:25.661Z,5.29
2023-03-15T15:43:52.984Z,5.31
2023-03-15T15:46:20.170Z,5.26
2023-03-15T15:48:47.319Z,5.28
2023-03-15T15:51:28.038Z,5.25
2023-03-15T15:53:58.187Z,5.25
2023-03-15T15:56:44.436Z,5.24
2023-03-15T15:59:15.097Z,5.19
2023-03-15T16:01:59.057Z,5.21
2023-03-15T16:04:27.355Z,5.18
2023-03-15T16:07:03.783Z,5.16
2023-03-15T16:09:36.281Z,5.12
2023-03-15T16:12:11.511Z,5.13
2023-03-15T16:14:38.577Z,5.06
2023-03-15T16:17:16.627Z,5.03
2023-03-15T16:19:43.870Z,4.99
2023-03-15T16:22:11.262Z,4.96
2023-03-15T16:24:39.862Z,4.92
2023-03-15T16:27:08.595Z,4.86
2023-03-15T16:29:38.034Z,4.86
2023-03-15T16:32:17.664Z,4.84
2023-03-15T16:34:54.738Z,4.73
2023-03-15T16:37:29.089Z,4.60
2023-03-15T16:39:56.236Z,4.62
2023-03-15T16:42:25.777Z,4.55
2023-03-15T16:44:53.715Z,4.53
2023-03-15T16:47:21.364Z,4.44
2023-03-15T16:49:48.429Z,4.33
2023-03-15T16:52:17.293Z,4.23
2023-03-15T16:54:47.722Z,4.11
2023-03-15T16:57:22.110Z,4.02
2023-03-15T16:59:49.804Z,3.91
2023-03-15T17:02:28.989Z,3.87
2023-03-15T17:04:56.063Z,3.80
2023-03-15T17:07:30.012Z,3.71
2023-03-15T17:09:57.552Z,3.53
2023-03-15T17:12:29.322Z,3.46
2023-03-15T17:14:59.499Z,3.30
2023-03-15T17:17:28.669Z,3.13
2023-03-15T17:19:56.298Z,2.95
2023-03-15T17:22:25.409Z,2.89
2023-03-15T17:24:52.926Z,2.80
2023-03-15T17:27:26.432Z,2.89
2023-03-15T17:29:53.558Z,2.94
2023-03-15T17:32:20.725Z,2.94
2023-03-15T17:34:48.043Z,2.97
2023-03-15T17:37:16.706Z,3.01
2023-03-15T17:39:45.220Z,3.06
2023-03-15T17:42:15.691Z,3.06
2023-03-15T17:44:42.916Z,2.99
2023-03-15T17:47:13.593Z,3.14
2023-03-15T17:49:41.109Z,3.20
2023-03-15T17:52:18.670Z,3.23
2023-03-15T17:54:46.515Z,3.27
2023-03-15T17:57:13.621Z,3.29
2023-03-15T17:59:40.861Z,3.32
2023-03-15T18:02:17.784Z,3.34
2023-03-15T18:04:45.044Z,3.30
2023-03-15T18:07:12.419Z,3.29
2023-03-15T18:09:40.073Z,3.29
2023-03-15T18:12:12.802Z,3.26
2023-03-15T18:14:40.812Z,3.24
2023-03-15T18:17:08.092Z,3.19
2023-03-15T18:19:35.190Z,3.10
2023-03-15T18:22:02.665Z,2.99
2023-03-15T18:24:29.776Z,2.94
2023-03-15T18:26:56.956Z,2.83
2023-03-15T18:29:23.985Z,2.74
2023-03-15T18:31:51.048Z,2.71
2023-03-15T18:34:22.117Z,2.65
2023-03-15T18:36:49.423Z,2.50
2023-03-15T18:39:16.613Z,2.45
2023-03-15T18:41:43.651Z,2.36
2023-03-15T18:44:11.436Z,2.26
2023-03-15T18:46:38.552Z,2.19
2023-03-15T18:49:06.117Z,2.09
2023-03-15T18:51:33.196Z,2.03
2023-03-15T18:54:00.315Z,1.96
2023-03-15T18:56:34.536Z,1.93
2023-03-15T18:59:02.514Z,1.92
2023-03-15T19:01:29.855Z,1.93
2023-03-15T19:03:57.307Z,1.92
2023-03-15T19:06:24.418Z,1.89
2023-03-15T19:08:54.417Z,1.90
2023-03-15T19:11:24.120Z,1.87
2023-03-15T19:13:51.523Z,1.90
2023-03-15T19:16:22.322Z,1.92
2023-03-15T19:18:51.821Z,1.91
2023-03-15T19:21:19.938Z,1.89
2023-03-15T19:23:47.578Z,1.81
2023-03-15T19:26:14.933Z,1.77
2023-03-15T19:28:42.418Z,1.71
2023-03-15T19:31:09.735Z,1.72
2023-03-15T19:33:37.102Z,1.69
2023-03-15T19:36:04.756Z,1.65
2023-03-15T19:38:31.815Z,1.63
2023-03-15T19:41:03.912Z,1.59
2023-03-15T19:43:31.160Z,1.58
2023-03-15T19:45:58.560Z,1.61
2023-03-15T19:48:25.931Z,1.60
2023-03-15T19:50:53.141Z,1.65
2023-03-15T19:53:20.092Z,1.83
2023-03-15T19:55:47.147Z,1.86
2023-03-15T19:58:14.794Z,1.92
2023-03-15T20:00:41.954Z,1.99
2023-03-15T20:03:09.156Z,1.97
2023-03-15T20:05:37.846Z,1.99
2023-03-15T20:08:05.236Z,2.00
2023-03-15T20:10:32.446Z,2.05
2023-03-15T20:12:59.502Z,2.07
2023-03-15T20:15:28.235Z,2.09
2023-03-15T20:17:56.346Z,2.11
2023-03-15T20:20:23.922Z,2.11
2023-03-15T20:22:51.312Z,2.11
2023-03-15T20:25:20.306Z,2.11
2023-03-15T20:27:48.130Z,2.13
2023-03-15T20:30:17.159Z,2.09
2023-03-15T20:32:44.650Z,2.15
2023-03-15T20:35:12.396Z,2.18
2023-03-15T20:37:40.883Z,2.17
2023-03-15T20:40:11.781Z,2.15
2023-03-15T20:42:39.209Z,2.08
2023-03-15T20:45:07.494Z,1.97
2023-03-15T20:47:34.771Z,1.86
2023-03-15T20:50:03.420Z,1.77
2023-03-15T20:52:32.340Z,1.70
2023-03-15T20:54:59.869Z,1.61
2023-03-15T20:57:27.232Z,1.58
2023-03-15T20:59:54.436Z,1.58
2023-03-15T21:02:22.889Z,1.54
2023-03-15T21:04:50.151Z,1.53
2023-03-15T21:07:17.377Z,1.53
2023-03-15T21:09:44.502Z,1.56
2023-03-15T21:12:11.752Z,1.52
2023-03-15T21:14:38.818Z,1.53
2023-03-15T21:17:05.815Z,1.47
2023-03-15T21:19:33.032Z,1.37
2023-03-15T21:22:01.111Z,1.33
2023-03-15T21:24:32.537Z,1.37
2023-03-15T21:27:06.459Z,1.32
2023-03-15T21:29:34.240Z,1.25
2023-03-15T21:32:02.564Z,1.28
2023-03-15T21:34:29.671Z,1.31
2023-03-15T21:36:56.938Z,1.32
2023-03-15T21:39:24.289Z,1.36
2023-03-15T21:41:51.286Z,1.31
2023-03-15T21:44:18.365Z,1.25
2023-03-15T21:46:45.742Z,1.20
2023-03-15T21:49:12.950Z,1.16
2023-03-15T21:51:40.007Z,1.09
2023-03-15T21:54:07.140Z,1.04
2023-03-15T21:56:34.161Z,0.88
2023-03-15T21:59:01.866Z,0.92
2023-03-15T22:01:29.067Z,0.89
2023-03-15T22:03:56.187Z,0.84
2023-03-15T22:06:23.434Z,0.81
2023-03-15T22:08:50.816Z,0.76
2023-03-15T22:11:17.805Z,0.80
2023-03-15T22:13:45.438Z,0.77
2023-03-15T22:16:12.886Z,0.74
2023-03-15T22:18:41.079Z,0.75
2023-03-15T22:21:08.229Z,0.70
2023-03-15T22:23:35.319Z,0.67
2023-03-15T22:26:02.433Z,0.74
2023-03-15T22:28:29.493Z,0.72
2023-03-15T22:30:56.726Z,0.72
2023-03-15T22:33:23.869Z,0.69
2023-03-15T22:35:58.618Z,0.69
2023-03-15T22:38:26.414Z,0.63
2023-03-15T22:41:05.532Z,0.64
2023-03-15T22:43:32.736Z,0.61
2023-03-15T22:46:00.051Z,0.60
2023-03-15T22:48:28.048Z,0.63
2023-03-15T22:51:02.716Z,0.59
2023-03-15T22:53:30.181Z,0.53
2023-03-15T22:55:57.759Z,0.47
2023-03-15T22:58:25.448Z,0.54
2023-03-15T23:00:52.516Z,0.52
2023-03-15T23:03:19.671Z,0.44
2023-03-15T23:05:47.053Z,0.50
2023-03-15T23:08:14.098Z,0.51
2023-03-15T23:10:42.209Z,0.50
2023-03-15T23:13:09.777Z,0.49
2023-03-15T23:15:37.088Z,0.52
2023-03-15T23:18:05.536Z,0.55
2023-03-15T23:20:33.779Z,0.55
2023-03-15T23:23:00.949Z,0.58
2023-03-15T23:25:31.136Z,0.60
2023-03-15T23:27:58.065Z,0.57
2023-03-15T23:30:25.639Z,0.53
2023-03-15T23:32:57.783Z,0.52
2023-03-15T23:35:25.593Z,0.52
2023-03-15T23:37:53.287Z,0.51
2023-03-15T23:40:21.543Z,0.60
2023-03-15T23:42:52.718Z,0.58
2023-03-15T23:45:19.831Z,0.57
2023-03-15T23:47:47.120Z,0.54
2023-03-15T23:50:14.518Z,0.62
2023-03-15T23:52:41.829Z,0.63
2023-03-15T23:55:10.110Z,0.63
2023-03-15T23:57:37.492Z,0.61
